Time;durP1;ratioP1;P1;durP2;ratioP2;P2;SDS_P1;SDS_P2;PMS_P1;PMS_P2;Temp;Humidity;BMP_temperature;BMP_pressure;BME280_temperature;BME280_humidity;BME280_pressure;Samples;Min_cycle;Max_cycle;Signal;HPM_P1;HPM_P2
2021/08/28 00:01:46;;;;;;;11.63;5.60;;;;;;;;;;5036719;28;20033;-70
2021/08/28 00:04:12;;;;;;;9.80;4.88;;;;;;;;;;5036416;28;20043;-70
2021/08/28 00:06:37;;;;;;;10.05;5.15;;;;;;;;;;5033998;28;20032;-70
2021/08/28 00:09:03;;;;;;;7.28;4.40;;;;;;;;;;5034196;28;20068;-70
2021/08/28 00:11:29;;;;;;;8.65;4.70;;;;;;;;;;5036687;28;20029;-70
2021/08/28 00:13:55;;;;;;;9.52;4.88;;;;;;;;;;5035011;28;20037;-70
2021/08/28 00:16:21;;;;;;;7.18;4.70;;;;;;;;;;5033753;28;20123;-70
2021/08/28 00:18:47;;;;;;;9.52;4.90;;;;;;;;;;5023061;28;20091;-70
2021/08/28 00:21:13;;;;;;;9.32;4.93;;;;;;;;;;5035279;28;20445;-68
2021/08/28 00:23:39;;;;;;;8.70;4.65;;;;;;;;;;5034855;28;20104;-69
2021/08/28 00:26:05;;;;;;;9.63;5.10;;;;;;;;;;5035460;28;20573;-68
2021/08/28 00:28:31;;;;;;;9.60;5.07;;;;;;;;;;5030413;28;20033;-68
2021/08/28 00:30:57;;;;;;;10.18;5.90;;;;;;;;;;5036095;28;20037;-68
2021/08/28 00:33:23;;;;;;;11.38;5.03;;;;;;;;;;5035425;28;20045;-68
2021/08/28 00:35:50;;;;;;;12.52;5.00;;;;;;;;;;5033316;28;20029;-68
2021/08/28 00:38:15;;;;;;;12.07;4.57;;;;;;;;;;5030028;28;20025;-68
2021/08/28 00:40:42;;;;;;;11.10;5.00;;;;;;;;;;5034552;28;20398;-71
2021/08/28 00:43:08;;;;;;;10.02;4.90;;;;;;;;;;5035425;28;20025;-68
2021/08/28 00:45:37;;;;;;;8.88;4.97;;;;;;;;;;5035915;28;20163;-68
2021/08/28 00:48:04;;;;;;;8.05;5.00;;;;;;;;;;5019641;28;20041;-69
2021/08/28 00:50:33;;;;;;;11.65;5.20;;;;;;;;;;5031565;28;20026;-69
2021/08/28 00:52:59;;;;;;;8.30;4.75;;;;;;;;;;5034319;28;20073;-68
2021/08/28 00:55:25;;;;;;;11.20;4.75;;;;;;;;;;5034885;28;20033;-68
2021/08/28 00:57:51;;;;;;;8.85;5.22;;;;;;;;;;5028554;28;20022;-68
2021/08/28 01:00:18;;;;;;;10.25;4.97;;;;;;;;;;5018419;28;20520;-68
2021/08/28 01:02:49;;;;;;;11.15;4.90;;;;;;;;;;5033175;28;20017;-68
2021/08/28 01:05:18;;;;;;;11.77;5.00;;;;;;;;;;5034672;28;20087;-68
2021/08/28 01:08:04;;;;;;;11.27;5.30;;;;;;;;;;5031935;28;20048;-68
2021/08/28 01:10:34;;;;;;;11.55;5.50;;;;;;;;;;5010827;28;20045;-68
2021/08/28 01:13:02;;;;;;;8.30;4.45;;;;;;;;;;5035328;28;20041;-68
2021/08/28 01:15:29;;;;;;;8.35;5.18;;;;;;;;;;5034921;28;20119;-68
2021/08/28 01:17:56;;;;;;;9.75;5.00;;;;;;;;;;5019072;28;20384;-68
2021/08/28 01:20:25;;;;;;;8.50;4.43;;;;;;;;;;5034206;28;20108;-68
2021/08/28 01:22:52;;;;;;;12.57;5.13;;;;;;;;;;5035106;28;20385;-68
2021/08/28 01:25:18;;;;;;;11.50;4.97;;;;;;;;;;5034572;28;20018;-71
2021/08/28 01:27:45;;;;;;;7.88;4.65;;;;;;;;;;5028887;28;20396;-68
2021/08/28 01:30:12;;;;;;;10.68;5.22;;;;;;;;;;5033679;28;20026;-69
2021/08/28 01:32:38;;;;;;;10.27;4.85;;;;;;;;;;5033359;28;20021;-68
2021/08/28 01:35:05;;;;;;;12.77;4.50;;;;;;;;;;5034745;28;20087;-68
2021/08/28 01:37:31;;;;;;;10.52;4.68;;;;;;;;;;5030988;28;20052;-68
2021/08/28 01:39:58;;;;;;;9.15;4.43;;;;;;;;;;5034837;28;20025;-68
2021/08/28 01:42:25;;;;;;;8.00;4.53;;;;;;;;;;5033924;28;20021;-68
2021/08/28 01:44:52;;;;;;;8.70;4.93;;;;;;;;;;5030751;28;20034;-68
2021/08/28 01:47:19;;;;;;;7.22;4.57;;;;;;;;;;5023289;28;20037;-69
2021/08/28 01:49:46;;;;;;;8.23;4.93;;;;;;;;;;5030139;28;20040;-68
2021/08/28 01:52:12;;;;;;;10.90;4.90;;;;;;;;;;5034526;28;20461;-68
2021/08/28 01:54:38;;;;;;;8.80;5.05;;;;;;;;;;5034704;28;20073;-65
2021/08/28 01:57:04;;;;;;;12.15;5.30;;;;;;;;;;5027201;28;20511;-65
2021/08/28 01:59:31;;;;;;;12.18;5.32;;;;;;;;;;5031903;28;20515;-65
2021/08/28 02:01:57;;;;;;;7.97;4.95;;;;;;;;;;5034070;28;20021;-65
2021/08/28 02:04:23;;;;;;;10.63;5.35;;;;;;;;;;5034222;28;20029;-65
2021/08/28 02:06:58;;;;;;;8.68;4.88;;;;;;;;;;5030841;28;20021;-65
2021/08/28 02:09:30;;;;;;;9.73;5.22;;;;;;;;;;5017466;28;20037;-65
2021/08/28 02:12:02;;;;;;;7.78;4.78;;;;;;;;;;5032330;28;20025;-65
2021/08/28 02:14:36;;;;;;;10.43;5.07;;;;;;;;;;5034086;28;20136;-67
2021/08/28 02:17:07;;;;;;;10.27;5.35;;;;;;;;;;5024452;28;20557;-66
2021/08/28 02:19:35;;;;;;;6.95;4.82;;;;;;;;;;5028858;28;20029;-66
2021/08/28 02:22:07;;;;;;;7.85;5.03;;;;;;;;;;5033625;28;20030;-67
2021/08/28 02:24:33;;;;;;;10.15;5.22;;;;;;;;;;5034236;28;20071;-67
2021/08/28 02:26:59;;;;;;;9.57;4.90;;;;;;;;;;5026033;28;20113;-67
2021/08/28 02:29:29;;;;;;;8.13;4.82;;;;;;;;;;5034005;28;20029;-67
2021/08/28 02:31:58;;;;;;;10.02;4.72;;;;;;;;;;5032983;28;20049;-66
2021/08/28 02:34:26;;;;;;;8.02;4.85;;;;;;;;;;5033627;28;20033;-66
2021/08/28 02:36:53;;;;;;;9.23;4.57;;;;;;;;;;5030088;28;20079;-67
2021/08/28 02:39:19;;;;;;;16.80;4.97;;;;;;;;;;5033799;28;20101;-67
2021/08/28 02:41:45;;;;;;;8.80;4.30;;;;;;;;;;5031050;28;20028;-67
2021/08/28 02:44:12;;;;;;;9.48;4.97;;;;;;;;;;5033769;28;20029;-66
2021/08/28 02:46:38;;;;;;;7.53;4.57;;;;;;;;;;5029001;28;20052;-67
2021/08/28 02:49:05;;;;;;;10.07;5.20;;;;;;;;;;5022809;28;20441;-67
2021/08/28 02:51:31;;;;;;;10.97;5.10;;;;;;;;;;5033659;28;20108;-67
2021/08/28 02:54:00;;;;;;;10.43;5.00;;;;;;;;;;5030254;28;20629;-67
2021/08/28 02:56:26;;;;;;;10.13;5.25;;;;;;;;;;5028902;28;20037;-66
2021/08/28 02:58:52;;;;;;;8.02;5.28;;;;;;;;;;5030488;28;20038;-66
2021/08/28 03:01:18;;;;;;;9.05;4.70;;;;;;;;;;5033362;28;20025;-67
2021/08/28 03:03:45;;;;;;;8.63;5.03;;;;;;;;;;5033704;28;20404;-66
2021/08/28 03:06:12;;;;;;;7.68;4.60;;;;;;;;;;5030115;28;20021;-66
2021/08/28 03:08:40;;;;;;;8.82;5.30;;;;;;;;;;5030193;28;20084;-67
2021/08/28 03:11:06;;;;;;;9.00;5.15;;;;;;;;;;5033443;28;20032;-66
2021/08/28 03:13:32;;;;;;;9.73;5.38;;;;;;;;;;5033366;28;20117;-66
2021/08/28 03:15:59;;;;;;;9.05;5.25;;;;;;;;;;5033029;28;20025;-66
2021/08/28 03:18:26;;;;;;;9.57;5.70;;;;;;;;;;5018895;28;20086;-67
2021/08/28 03:20:56;;;;;;;7.35;4.43;;;;;;;;;;5029068;28;20480;-67
2021/08/28 03:23:23;;;;;;;8.77;4.85;;;;;;;;;;5032163;28;20456;-67
2021/08/28 03:25:49;;;;;;;9.75;5.40;;;;;;;;;;5033139;28;20045;-67
2021/08/28 03:28:20;;;;;;;8.80;5.45;;;;;;;;;;5026011;28;20059;-67
2021/08/28 03:30:47;;;;;;;8.25;5.07;;;;;;;;;;5032758;28;20133;-66
2021/08/28 03:33:13;;;;;;;7.88;4.68;;;;;;;;;;5031616;28;20428;-67
2021/08/28 03:35:40;;;;;;;9.30;5.38;;;;;;;;;;5030919;28;20037;-66
2021/08/28 03:38:06;;;;;;;9.45;5.00;;;;;;;;;;5029298;28;20040;-68
2021/08/28 03:40:32;;;;;;;7.82;5.25;;;;;;;;;;5032951;28;20026;-66
2021/08/28 03:42:58;;;;;;;9.88;5.32;;;;;;;;;;5032649;28;20032;-66
2021/08/28 03:45:28;;;;;;;10.65;5.63;;;;;;;;;;5033095;28;20051;-66
2021/08/28 03:47:54;;;;;;;8.63;5.25;;;;;;;;;;5016568;28;20076;-66
2021/08/28 03:50:20;;;;;;;8.15;5.20;;;;;;;;;;5032814;28;20488;-66
2021/08/28 03:52:46;;;;;;;10.07;5.40;;;;;;;;;;5033055;28;20033;-66
2021/08/28 03:55:12;;;;;;;9.20;5.28;;;;;;;;;;5032682;28;20623;-66
2021/08/28 03:57:38;;;;;;;10.23;5.07;;;;;;;;;;5033103;28;20069;-66
2021/08/28 04:00:05;;;;;;;8.48;5.10;;;;;;;;;;5030585;28;20026;-66
2021/08/28 04:02:31;;;;;;;10.50;5.57;;;;;;;;;;5032632;28;20033;-66
2021/08/28 04:04:57;;;;;;;9.13;5.45;;;;;;;;;;5032967;28;20405;-66
2021/08/28 04:07:23;;;;;;;11.10;5.35;;;;;;;;;;5032809;28;20228;-66
2021/08/28 04:09:50;;;;;;;7.85;5.07;;;;;;;;;;5035994;28;20025;-66
2021/08/28 04:12:16;;;;;;;9.05;4.97;;;;;;;;;;5035076;28;20033;-66
2021/08/28 04:14:42;;;;;;;10.10;5.57;;;;;;;;;;5034027;28;20143;-66
2021/08/28 04:17:08;;;;;;;11.10;5.72;;;;;;;;;;5028921;28;20381;-66
2021/08/28 04:19:34;;;;;;;11.18;5.85;;;;;;;;;;5030356;28;20037;-66
2021/08/28 04:22:00;;;;;;;8.70;5.63;;;;;;;;;;5036259;28;20013;-66
2021/08/28 04:24:26;;;;;;;10.20;5.15;;;;;;;;;;5036020;28;20041;-66
2021/08/28 04:26:52;;;;;;;9.48;5.60;;;;;;;;;;5033616;28;20048;-65
2021/08/28 04:29:18;;;;;;;9.05;5.18;;;;;;;;;;5037804;28;20519;-66
2021/08/28 04:31:44;;;;;;;13.88;5.35;;;;;;;;;;5035911;28;20026;-66
2021/08/28 04:34:10;;;;;;;9.77;5.90;;;;;;;;;;5034283;28;20478;-66
2021/08/28 04:36:36;;;;;;;9.45;5.28;;;;;;;;;;5032512;28;20022;-66
2021/08/28 04:39:02;;;;;;;11.88;5.93;;;;;;;;;;5033290;28;20516;-66
2021/08/28 04:41:28;;;;;;;11.07;5.63;;;;;;;;;;5035658;28;20095;-66
2021/08/28 04:43:54;;;;;;;8.45;5.75;;;;;;;;;;5036143;28;20034;-66
2021/08/28 04:46:20;;;;;;;9.43;6.07;;;;;;;;;;5032238;28;20025;-66
2021/08/28 04:48:47;;;;;;;9.30;5.80;;;;;;;;;;5023048;28;20109;-66
2021/08/28 04:51:13;;;;;;;8.45;6.10;;;;;;;;;;5033239;28;20440;-66
2021/08/28 04:53:39;;;;;;;8.38;5.63;;;;;;;;;;5034066;28;20057;-66
2021/08/28 04:56:06;;;;;;;10.40;5.88;;;;;;;;;;5035037;28;20079;-66
2021/08/28 04:58:32;;;;;;;12.70;6.97;;;;;;;;;;5029924;28;20026;-67
2021/08/28 05:00:58;;;;;;;9.27;5.75;;;;;;;;;;5035059;28;20053;-66
2021/08/28 05:03:25;;;;;;;9.50;5.75;;;;;;;;;;5035774;28;20029;-66
2021/08/28 05:05:54;;;;;;;8.43;5.82;;;;;;;;;;5032726;28;20021;-66
2021/08/28 05:08:20;;;;;;;10.00;6.50;;;;;;;;;;5032158;28;20024;-66
2021/08/28 05:10:46;;;;;;;11.00;5.80;;;;;;;;;;5035021;28;20030;-66
2021/08/28 05:13:12;;;;;;;12.00;5.65;;;;;;;;;;5040352;28;20033;-66
2021/08/28 05:15:38;;;;;;;10.82;5.93;;;;;;;;;;5035370;28;20029;-66
2021/08/28 05:18:04;;;;;;;10.70;5.32;;;;;;;;;;5018028;28;20057;-66
2021/08/28 05:20:31;;;;;;;9.00;5.43;;;;;;;;;;5033661;28;20661;-66
2021/08/28 05:22:57;;;;;;;9.15;5.55;;;;;;;;;;5035200;28;20018;-66
2021/08/28 05:25:23;;;;;;;8.95;5.32;;;;;;;;;;5033417;28;20036;-66
2021/08/28 05:27:49;;;;;;;11.88;5.95;;;;;;;;;;5034576;28;20107;-66
2021/08/28 05:30:15;;;;;;;10.18;5.32;;;;;;;;;;5033113;28;20021;-66
2021/08/28 05:32:43;;;;;;;9.60;4.85;;;;;;;;;;5033131;28;20068;-66
2021/08/28 05:35:09;;;;;;;8.80;4.53;;;;;;;;;;5034911;28;20060;-66
2021/08/28 05:37:35;;;;;;;9.85;4.38;;;;;;;;;;5031113;28;20443;-66
2021/08/28 05:40:01;;;;;;;8.85;4.85;;;;;;;;;;5034120;28;20022;-66
2021/08/28 05:42:27;;;;;;;7.38;4.55;;;;;;;;;;5034420;28;20302;-66
2021/08/28 05:44:53;;;;;;;10.45;4.65;;;;;;;;;;5032357;28;20017;-66
2021/08/28 05:47:20;;;;;;;12.68;5.05;;;;;;;;;;5024674;28;20338;-66
2021/08/28 05:49:46;;;;;;;9.93;4.72;;;;;;;;;;5030039;28;20480;-66
2021/08/28 05:52:12;;;;;;;8.35;4.78;;;;;;;;;;5034318;28;20033;-66
2021/08/28 05:54:38;;;;;;;10.00;5.25;;;;;;;;;;5033808;28;20485;-66
2021/08/28 05:57:04;;;;;;;8.02;4.65;;;;;;;;;;5025999;28;20028;-66
2021/08/28 05:59:30;;;;;;;10.30;5.38;;;;;;;;;;5030180;28;20033;-66
2021/08/28 06:01:56;;;;;;;7.53;4.60;;;;;;;;;;5034004;28;20026;-64
2021/08/28 06:04:22;;;;;;;8.25;4.28;;;;;;;;;;5032921;28;20275;-66
2021/08/28 06:06:48;;;;;;;9.15;4.40;;;;;;;;;;5026125;28;20079;-66
2021/08/28 06:09:14;;;;;;;8.23;4.70;;;;;;;;;;5030967;28;20033;-66
2021/08/28 06:11:40;;;;;;;8.70;4.15;;;;;;;;;;5043019;28;20059;-66
2021/08/28 06:14:06;;;;;;;9.65;4.00;;;;;;;;;;5033667;28;20140;-66
2021/08/28 06:16:32;;;;;;;6.35;3.58;;;;;;;;;;5027686;28;20044;-66
2021/08/28 06:18:59;;;;;;;7.05;3.28;;;;;;;;;;5030797;28;20114;-66
2021/08/28 06:21:25;;;;;;;8.13;3.47;;;;;;;;;;5031354;28;20083;-66
2021/08/28 06:23:51;;;;;;;6.85;3.40;;;;;;;;;;5029721;28;20127;-66
2021/08/28 06:26:17;;;;;;;7.75;3.33;;;;;;;;;;5028849;28;20053;-61
2021/08/28 06:28:43;;;;;;;6.25;3.58;;;;;;;;;;5012165;28;20366;-61
2021/08/28 06:31:09;;;;;;;6.22;2.83;;;;;;;;;;5032077;28;20460;-61
2021/08/28 06:33:35;;;;;;;8.02;3.15;;;;;;;;;;5031362;28;20057;-61
2021/08/28 06:36:01;;;;;;;6.95;3.30;;;;;;;;;;5030545;28;20108;-60
2021/08/28 06:38:27;;;;;;;7.53;3.40;;;;;;;;;;5026400;28;20033;-61
2021/08/28 06:40:53;;;;;;;5.78;3.20;;;;;;;;;;5028109;28;20245;-60
2021/08/28 06:43:19;;;;;;;6.75;3.20;;;;;;;;;;5030965;28;20386;-60
2021/08/28 06:45:46;;;;;;;6.53;3.13;;;;;;;;;;5038181;28;20083;-60
2021/08/28 06:48:12;;;;;;;7.60;3.50;;;;;;;;;;5016926;28;20025;-60
2021/08/28 06:50:38;;;;;;;6.65;3.40;;;;;;;;;;5036062;28;20024;-60
2021/08/28 06:53:04;;;;;;;8.48;3.00;;;;;;;;;;5034853;28;20030;-60
2021/08/28 06:55:30;;;;;;;6.15;3.38;;;;;;;;;;5033146;28;20501;-60
2021/08/28 06:57:56;;;;;;;6.97;3.60;;;;;;;;;;5027544;28;20021;-63
2021/08/28 07:00:22;;;;;;;4.55;2.85;;;;;;;;;;5035436;28;20052;-61
2021/08/28 07:02:48;;;;;;;7.82;3.10;;;;;;;;;;5031449;28;20032;-61
2021/08/28 07:05:14;;;;;;;6.63;3.28;;;;;;;;;;5032914;28;20508;-61
2021/08/28 07:07:40;;;;;;;9.13;3.22;;;;;;;;;;5030230;28;20025;-62
2021/08/28 07:10:06;;;;;;;8.32;3.22;;;;;;;;;;5023367;28;20021;-61
2021/08/28 07:12:32;;;;;;;6.65;3.13;;;;;;;;;;5041107;28;20113;-63
2021/08/28 07:14:58;;;;;;;7.13;3.17;;;;;;;;;;5029620;28;20116;-62
2021/08/28 07:17:24;;;;;;;8.82;2.80;;;;;;;;;;5028104;28;20032;-63
2021/08/28 07:19:50;;;;;;;5.80;3.17;;;;;;;;;;5027892;28;20103;-60
2021/08/28 07:22:16;;;;;;;6.35;3.30;;;;;;;;;;5027098;28;20101;-61
2021/08/28 07:24:42;;;;;;;6.43;2.95;;;;;;;;;;5027673;28;20397;-62
2021/08/28 07:27:08;;;;;;;7.13;2.80;;;;;;;;;;5031120;28;20042;-61
2021/08/28 07:29:34;;;;;;;5.78;2.95;;;;;;;;;;5033483;28;20436;-63
2021/08/28 07:32:00;;;;;;;5.10;3.00;;;;;;;;;;5032673;28;20025;-61
2021/08/28 07:34:26;;;;;;;6.22;3.03;;;;;;;;;;5027536;28;20029;-61
2021/08/28 07:36:52;;;;;;;6.03;2.92;;;;;;;;;;5031932;28;20024;-60
2021/08/28 07:39:18;;;;;;;5.47;3.08;;;;;;;;;;5028604;28;20025;-62
2021/08/28 07:41:44;;;;;;;6.75;3.60;;;;;;;;;;5025859;28;20898;-59
2021/08/28 07:44:10;;;;;;;6.15;2.88;;;;;;;;;;5030867;28;20030;-61
2021/08/28 07:46:36;;;;;;;7.05;3.17;;;;;;;;;;5034066;28;20026;-61
2021/08/28 07:49:02;;;;;;;6.65;3.55;;;;;;;;;;5019863;28;20500;-59
2021/08/28 07:51:28;;;;;;;8.43;3.20;;;;;;;;;;5030727;28;20040;-62
2021/08/28 07:53:54;;;;;;;6.22;3.08;;;;;;;;;;5032239;28;20514;-62
2021/08/28 07:56:20;;;;;;;8.98;2.60;;;;;;;;;;5037903;28;20056;-61
2021/08/28 07:58:46;;;;;;;6.22;2.80;;;;;;;;;;5032834;28;20409;-60
2021/08/28 08:01:32;;;;;;;6.68;2.80;;;;;;;;;;5032695;28;20040;-62
2021/08/28 08:03:58;;;;;;;7.00;2.95;;;;;;;;;;5031105;28;20057;-62
2021/08/28 08:06:24;;;;;;;8.60;3.13;;;;;;;;;;5034819;28;20103;-61
2021/08/28 08:08:50;;;;;;;5.10;2.83;;;;;;;;;;5034672;28;20108;-62
2021/08/28 08:11:17;;;;;;;5.00;2.58;;;;;;;;;;5036027;28;20048;-60
2021/08/28 08:13:43;;;;;;;5.82;2.90;;;;;;;;;;5035265;28;20413;-60
2021/08/28 08:16:09;;;;;;;6.97;2.88;;;;;;;;;;5019155;28;20369;-61
2021/08/28 08:18:35;;;;;;;6.80;3.28;;;;;;;;;;5022724;28;20035;-61
2021/08/28 08:21:01;;;;;;;5.40;2.97;;;;;;;;;;5034376;28;20108;-61
2021/08/28 08:23:27;;;;;;;5.70;3.28;;;;;;;;;;5035280;28;20030;-61
2021/08/28 08:25:53;;;;;;;5.40;3.08;;;;;;;;;;5042348;28;20401;-61
2021/08/28 08:28:19;;;;;;;6.70;3.10;;;;;;;;;;5030670;28;20021;-61
2021/08/28 08:30:45;;;;;;;6.28;2.80;;;;;;;;;;5036350;28;20104;-61
2021/08/28 08:33:11;;;;;;;7.57;3.20;;;;;;;;;;5029135;28;20030;-61
2021/08/28 08:35:38;;;;;;;10.38;3.60;;;;;;;;;;5029227;28;20113;-61
2021/08/28 08:38:04;;;;;;;5.53;2.65;;;;;;;;;;5032144;28;20036;-61
2021/08/28 08:40:30;;;;;;;6.10;3.10;;;;;;;;;;5033871;28;20040;-61
2021/08/28 08:42:57;;;;;;;5.45;3.40;;;;;;;;;;5031444;28;20037;-61
2021/08/28 08:45:27;;;;;;;7.33;3.50;;;;;;;;;;5028850;28;20021;-61
2021/08/28 08:47:53;;;;;;;6.90;3.35;;;;;;;;;;5019207;28;20022;-61
2021/08/28 08:50:20;;;;;;;6.75;3.30;;;;;;;;;;5035852;28;20026;-61
2021/08/28 08:52:49;;;;;;;8.63;3.30;;;;;;;;;;5036585;28;20029;-61
2021/08/28 08:55:15;;;;;;;7.03;3.60;;;;;;;;;;5029084;28;20083;-61
2021/08/28 08:57:42;;;;;;;7.47;3.67;;;;;;;;;;5029182;28;20469;-61
2021/08/28 09:00:08;;;;;;;8.75;3.72;;;;;;;;;;5032989;28;20381;-61
2021/08/28 09:02:36;;;;;;;5.90;3.40;;;;;;;;;;5038505;28;20388;-61
2021/08/28 09:05:03;;;;;;;7.60;3.83;;;;;;;;;;5040064;28;20017;-61
2021/08/28 09:07:29;;;;;;;7.57;3.72;;;;;;;;;;5014512;28;20038;-61
2021/08/28 09:09:55;;;;;;;6.65;3.42;;;;;;;;;;5035090;28;20029;-61
2021/08/28 09:12:21;;;;;;;6.68;3.70;;;;;;;;;;5044480;28;20052;-60
2021/08/28 09:14:56;;;;;;;8.85;4.05;;;;;;;;;;5035425;28;20082;-60
2021/08/28 09:17:22;;;;;;;9.50;4.32;;;;;;;;;;5021492;28;20049;-60
2021/08/28 09:19:49;;;;;;;7.93;3.95;;;;;;;;;;5023890;28;20037;-60
2021/08/28 09:22:21;;;;;;;8.30;4.00;;;;;;;;;;5035038;28;20023;-60
2021/08/28 09:24:48;;;;;;;7.97;3.83;;;;;;;;;;5034536;28;20048;-60
2021/08/28 09:27:32;;;;;;;7.47;4.00;;;;;;;;;;5026131;28;20103;-60
2021/08/28 09:29:58;;;;;;;7.43;3.92;;;;;;;;;;5025655;28;20022;-60
2021/08/28 09:32:24;;;;;;;10.68;3.75;;;;;;;;;;5042602;28;20028;-60
2021/08/28 09:34:50;;;;;;;8.57;4.00;;;;;;;;;;5041810;28;20064;-60
2021/08/28 09:37:16;;;;;;;6.97;3.60;;;;;;;;;;5036891;28;20064;-60
2021/08/28 09:39:46;;;;;;;8.27;3.75;;;;;;;;;;5034874;28;20025;-60
2021/08/28 09:42:20;;;;;;;8.43;3.70;;;;;;;;;;5033550;28;20033;-60
2021/08/28 09:44:47;;;;;;;6.15;3.40;;;;;;;;;;5035610;28;20476;-60
2021/08/28 09:47:14;;;;;;;7.10;3.65;;;;;;;;;;5023551;28;20022;-60
2021/08/28 09:49:41;;;;;;;7.95;3.85;;;;;;;;;;5029470;28;20546;-60
2021/08/28 09:52:14;;;;;;;7.10;3.40;;;;;;;;;;5034062;28;20025;-60
2021/08/28 09:54:40;;;;;;;6.05;3.38;;;;;;;;;;5032579;28;20045;-60
2021/08/28 09:57:08;;;;;;;6.10;3.00;;;;;;;;;;5027156;28;20476;-60
2021/08/28 09:59:34;;;;;;;6.88;3.13;;;;;;;;;;5031530;28;20026;-60
2021/08/28 10:02:07;;;;;;;6.45;3.10;;;;;;;;;;5033659;28;20057;-59
2021/08/28 10:04:52;;;;;;;5.55;3.00;;;;;;;;;;5033098;28;20033;-59
2021/08/28 10:07:19;;;;;;;5.90;2.80;;;;;;;;;;5037793;28;20033;-60
2021/08/28 10:09:45;;;;;;;4.57;2.50;;;;;;;;;;5034425;28;20545;-60
2021/08/28 10:12:11;;;;;;;6.32;3.15;;;;;;;;;;5031261;28;20774;-60
2021/08/28 10:14:37;;;;;;;7.15;3.17;;;;;;;;;;5035053;28;20091;-62
2021/08/28 10:17:04;;;;;;;5.60;2.88;;;;;;;;;;5026077;28;20556;-62
2021/08/28 10:19:31;;;;;;;6.55;3.13;;;;;;;;;;5026005;28;20033;-62
2021/08/28 10:21:57;;;;;;;;;;;;;;;;;;5034512;28;20022;-60
2021/08/28 10:24:24;;;;;;;6.65;2.88;;;;;;;;;;5046792;28;19913;-61
2021/08/28 10:26:50;;;;;;;7.38;3.20;;;;;;;;;;5025819;28;20046;-61
2021/08/28 10:29:16;;;;;;;6.07;3.08;;;;;;;;;;5033006;28;20176;-61
2021/08/28 10:31:43;;;;;;;7.15;3.05;;;;;;;;;;5032334;28;20030;-61
2021/08/28 10:34:10;;;;;;;5.70;2.88;;;;;;;;;;5032316;28;20032;-61
2021/08/28 10:36:36;;;;;;;5.28;2.75;;;;;;;;;;5028751;28;20136;-61
2021/08/28 10:39:04;;;;;;;5.88;3.13;;;;;;;;;;5031340;28;20030;-61
2021/08/28 10:41:30;;;;;;;8.48;3.00;;;;;;;;;;5029452;28;20564;-61
2021/08/28 10:43:56;;;;;;;6.07;3.00;;;;;;;;;;5031642;28;20409;-60
2021/08/28 10:46:27;;;;;;;5.85;3.28;;;;;;;;;;5035038;28;20391;-63
2021/08/28 10:48:54;;;;;;;6.47;2.83;;;;;;;;;;5032169;28;20064;-62
2021/08/28 10:51:24;;;;;;;6.85;3.10;;;;;;;;;;5016013;28;20104;-61
2021/08/28 10:53:54;;;;;;;4.88;2.70;;;;;;;;;;5027461;28;20044;-61
2021/08/28 10:56:20;;;;;;;5.93;2.95;;;;;;;;;;5032057;28;20033;-62
2021/08/28 10:58:46;;;;;;;6.82;2.97;;;;;;;;;;5027887;28;20033;-61
2021/08/28 11:01:12;;;;;;;5.40;2.78;;;;;;;;;;5031139;28;20366;-62
2021/08/28 11:03:39;;;;;;;6.53;3.03;;;;;;;;;;5033729;28;20056;-62
2021/08/28 11:06:14;;;;;;;6.22;2.92;;;;;;;;;;5040811;28;20021;-61
2021/08/28 11:09:02;;;;;;;5.40;2.65;;;;;;;;;;5030723;28;20357;-62
2021/08/28 11:11:30;;;;;;;7.47;3.00;;;;;;;;;;5042941;28;20051;-62
2021/08/28 11:14:01;;;;;;;5.50;3.00;;;;;;;;;;5026892;28;20040;-63
2021/08/28 11:16:42;;;;;;;4.90;2.60;;;;;;;;;;5031875;28;20029;-62
2021/08/28 11:19:09;;;;;;;7.68;3.22;;;;;;;;;;5035878;28;20026;-62
2021/08/28 11:21:45;;;;;;;5.10;2.53;;;;;;;;;;5033586;28;20033;-61
2021/08/28 11:24:13;;;;;;;5.32;2.85;;;;;;;;;;5035852;28;20037;-61
2021/08/28 11:26:39;;;;;;;7.85;3.10;;;;;;;;;;5031178;28;20091;-63
2021/08/28 11:29:24;;;;;;;5.40;2.80;;;;;;;;;;5034008;28;20030;-62
2021/08/28 11:32:19;;;;;;;7.30;2.92;;;;;;;;;;5036041;28;20041;-62
2021/08/28 11:34:46;;;;;;;6.28;2.80;;;;;;;;;;5030976;28;20501;-62
2021/08/28 11:37:24;;;;;;;4.85;2.58;;;;;;;;;;5033307;28;20022;-62
2021/08/28 11:39:51;;;;;;;4.78;2.78;;;;;;;;;;5035236;28;20362;-62
2021/08/28 11:42:17;;;;;;;4.95;2.90;;;;;;;;;;5047148;28;20026;-62
2021/08/28 11:44:49;;;;;;;6.38;3.13;;;;;;;;;;5035160;28;20029;-62
2021/08/28 11:47:15;;;;;;;8.57;2.83;;;;;;;;;;5026200;28;20026;-60
2021/08/28 11:49:41;;;;;;;6.07;2.60;;;;;;;;;;5032525;28;20061;-61
2021/08/28 11:52:07;;;;;;;5.55;3.03;;;;;;;;;;5036516;28;20029;-60
2021/08/28 11:54:34;;;;;;;6.30;2.72;;;;;;;;;;5035046;28;20095;-61
2021/08/28 11:57:00;;;;;;;6.22;2.92;;;;;;;;;;5027282;28;20027;-61
2021/08/28 11:59:36;;;;;;;7.05;3.10;;;;;;;;;;5034449;28;20386;-61
2021/08/28 12:02:02;;;;;;;5.55;2.83;;;;;;;;;;5036209;28;20040;-61
2021/08/28 12:04:28;;;;;;;6.22;2.78;;;;;;;;;;5034608;28;20041;-61
2021/08/28 12:06:55;;;;;;;6.90;2.78;;;;;;;;;;5033071;28;20117;-61
2021/08/28 12:09:22;;;;;;;5.07;2.77;;;;;;;;;;5036749;28;20100;-61
2021/08/28 12:11:48;;;;;;;6.00;2.83;;;;;;;;;;5034120;28;20333;-61
2021/08/28 12:14:14;;;;;;;5.60;2.70;;;;;;;;;;5036195;28;20041;-61
2021/08/28 12:16:42;;;;;;;6.70;3.05;;;;;;;;;;5031333;28;20030;-61
2021/08/28 12:19:10;;;;;;;5.60;2.83;;;;;;;;;;5026937;28;20072;-61
2021/08/28 12:21:36;;;;;;;6.65;3.03;;;;;;;;;;5034947;28;20400;-61
2021/08/28 12:24:15;;;;;;;7.13;2.80;;;;;;;;;;5034060;28;20028;-61
2021/08/28 12:26:42;;;;;;;6.25;2.83;;;;;;;;;;5028237;28;20045;-61
2021/08/28 12:29:08;;;;;;;5.10;3.00;;;;;;;;;;5034976;28;20124;-61
2021/08/28 12:31:34;;;;;;;6.45;2.70;;;;;;;;;;5036190;28;20064;-61
2021/08/28 12:34:39;;;;;;;7.53;2.92;;;;;;;;;;5034650;28;20120;-61
2021/08/28 12:37:15;;;;;;;8.40;2.97;;;;;;;;;;5002449;28;20477;-61
2021/08/28 12:39:42;;;;;;;7.85;2.92;;;;;;;;;;5006489;28;20118;-61
2021/08/28 12:42:11;;;;;;;5.47;2.90;;;;;;;;;;5016598;28;20035;-60
2021/08/28 12:44:37;;;;;;;5.80;2.90;;;;;;;;;;5033617;28;20504;-61
2021/08/28 12:47:03;;;;;;;7.70;2.70;;;;;;;;;;5026666;28;20385;-60
2021/08/28 12:49:32;;;;;;;5.30;2.90;;;;;;;;;;5027922;28;20386;-60
2021/08/28 12:51:58;;;;;;;6.88;2.85;;;;;;;;;;5034574;28;20029;-61
2021/08/28 12:54:29;;;;;;;6.05;3.22;;;;;;;;;;5033803;28;20506;-60
2021/08/28 12:57:00;;;;;;;5.13;2.88;;;;;;;;;;5027528;28;20029;-60
2021/08/28 12:59:26;;;;;;;5.80;3.25;;;;;;;;;;5035189;28;20022;-61
2021/08/28 13:01:53;;;;;;;5.03;2.58;;;;;;;;;;5033619;28;20029;-60
2021/08/28 13:04:19;;;;;;;7.53;3.03;;;;;;;;;;5033539;28;20029;-60
2021/08/28 13:07:05;;;;;;;6.35;2.92;;;;;;;;;;5032101;28;20363;-60
2021/08/28 13:09:31;;;;;;;6.97;3.00;;;;;;;;;;5019765;28;20036;-61
2021/08/28 13:11:57;;;;;;;5.55;2.75;;;;;;;;;;5032808;28;20385;-61
2021/08/28 13:14:23;;;;;;;6.68;3.55;;;;;;;;;;5033988;28;20034;-61
2021/08/28 13:16:52;;;;;;;5.18;2.83;;;;;;;;;;5029313;28;20030;-61
2021/08/28 13:19:19;;;;;;;6.25;2.80;;;;;;;;;;5022729;28;20033;-61
2021/08/28 13:21:47;;;;;;;7.07;2.72;;;;;;;;;;5029406;28;20017;-61
2021/08/28 13:24:17;;;;;;;7.13;2.97;;;;;;;;;;5033562;28;20040;-61
2021/08/28 13:26:56;;;;;;;5.47;3.10;;;;;;;;;;5028754;28;20046;-61
2021/08/28 13:29:27;;;;;;;7.07;2.80;;;;;;;;;;5038872;28;20029;-61
2021/08/28 13:32:09;;;;;;;4.97;2.70;;;;;;;;;;5037846;28;20108;-61
2021/08/28 13:34:42;;;;;;;6.13;2.75;;;;;;;;;;5033470;28;20048;-61
2021/08/28 13:37:10;;;;;;;5.45;2.60;;;;;;;;;;5036672;28;20041;-62
2021/08/28 13:39:36;;;;;;;6.43;2.97;;;;;;;;;;5032075;28;20607;-62
2021/08/28 13:42:02;;;;;;;6.55;2.60;;;;;;;;;;5033253;28;20481;-61
2021/08/28 13:44:29;;;;;;;7.82;3.20;;;;;;;;;;5032947;28;20100;-62
2021/08/28 13:46:55;;;;;;;4.68;2.45;;;;;;;;;;5026904;28;20028;-62
2021/08/28 13:49:21;;;;;;;6.32;2.72;;;;;;;;;;5025716;28;20508;-62
2021/08/28 13:51:48;;;;;;;5.57;2.80;;;;;;;;;;5033236;28;20049;-62
2021/08/28 13:54:14;;;;;;;5.45;2.50;;;;;;;;;;5032818;28;20456;-62
2021/08/28 13:56:40;;;;;;;6.75;2.90;;;;;;;;;;5028416;28;20381;-62
2021/08/28 13:59:06;;;;;;;7.63;2.88;;;;;;;;;;5033266;28;20086;-62
2021/08/28 14:01:32;;;;;;;6.30;2.65;;;;;;;;;;5034445;28;20451;-61
2021/08/28 14:03:58;;;;;;;6.75;2.88;;;;;;;;;;5033009;28;20029;-61
2021/08/28 14:06:28;;;;;;;4.93;2.58;;;;;;;;;;5030942;28;20108;-60
2021/08/28 14:08:54;;;;;;;6.10;2.65;;;;;;;;;;5031492;28;20092;-60
2021/08/28 14:11:20;;;;;;;5.07;2.50;;;;;;;;;;5033221;28;20068;-61
2021/08/28 14:13:46;;;;;;;5.05;2.30;;;;;;;;;;5032465;28;20485;-61
2021/08/28 14:16:12;;;;;;;5.35;2.33;;;;;;;;;;5038707;28;20049;-62
2021/08/28 14:18:38;;;;;;;5.85;2.65;;;;;;;;;;5017897;28;20034;-61
2021/08/28 14:21:04;;;;;;;5.63;2.63;;;;;;;;;;5029570;28;20361;-61
2021/08/28 14:23:29;;;;;;;5.53;2.67;;;;;;;;;;5032875;28;20033;-62
2021/08/28 14:25:55;;;;;;;4.40;2.40;;;;;;;;;;5033084;28;20038;-62
2021/08/28 14:28:21;;;;;;;5.60;2.70;;;;;;;;;;5026737;28;20034;-62
2021/08/28 14:30:48;;;;;;;6.90;2.80;;;;;;;;;;5031627;28;20075;-62
2021/08/28 14:33:14;;;;;;;5.90;2.90;;;;;;;;;;5032086;28;20566;-62
2021/08/28 14:35:40;;;;;;;5.40;2.85;;;;;;;;;;5032689;28;20116;-62
2021/08/28 14:38:06;;;;;;;5.20;2.40;;;;;;;;;;5030485;28;20029;-61
2021/08/28 14:40:32;;;;;;;5.78;2.97;;;;;;;;;;5033368;28;20495;-62
2021/08/28 14:42:58;;;;;;;4.35;2.20;;;;;;;;;;5033456;28;20025;-62